Time;durP1;ratioP1;P1;durP2;ratioP2;P2;SDS_P1;SDS_P2;PMS_P1;PMS_P2;Temp;Humidity;BMP_temperature;BMP_pressure;BME280_temperature;BME280_humidity;BME280_pressure;Samples;Min_cycle;Max_cycle;Signal;HPM_P1;HPM_P2
2023/03/17 00:00:28;;;;;;;6.90;3.30;;;;;;;6.74;76.41;100714.91;5052231;28;20459;-66
2023/03/17 00:02:56;;;;;;;5.13;3.60;;;;;;;6.72;76.94;100721.63;5052698;28;20033;-66
2023/03/17 00:05:29;;;;;;;6.15;3.17;;;;;;;6.75;76.60;100727.75;5052868;28;20044;-66
2023/03/17 00:08:00;;;;;;;5.50;3.40;;;;;;;6.74;76.70;100736.25;5051674;28;20087;-66
2023/03/17 00:10:26;;;;;;;5.53;2.92;;;;;;;6.73;76.69;100744.72;5052960;28;20036;-66
2023/03/17 00:12:54;;;;;;;6.47;3.25;;;;;;;6.65;76.94;100734.97;5052907;28;20021;-66
2023/03/17 00:15:25;;;;;;;5.60;3.50;;;;;;;6.63;77.13;100724.66;5052091;28;20036;-66
2023/03/17 00:17:54;;;;;;;5.93;3.30;;;;;;;6.57;77.19;100722.72;5052728;28;20033;-66
2023/03/17 00:20:26;;;;;;;5.60;3.30;;;;;;;6.55;77.70;100718.34;5052641;28;20025;-66
2023/03/17 00:23:02;;;;;;;7.13;3.55;;;;;;;6.58;77.83;100705.66;5051935;28;20032;-66
2023/03/17 00:25:32;;;;;;;5.43;3.72;;;;;;;6.55;77.47;100693.59;5052878;28;20017;-66
2023/03/17 00:27:59;;;;;;;5.47;3.45;;;;;;;6.56;77.39;100694.50;5051601;28;20095;-66
2023/03/17 00:30:26;;;;;;;7.00;3.77;;;;;;;6.53;77.20;100685.00;5052752;28;20112;-66
2023/03/17 00:32:56;;;;;;;6.40;3.38;;;;;;;6.47;77.78;100679.59;5052468;28;20021;-66
2023/03/17 00:35:24;;;;;;;5.30;3.20;;;;;;;6.53;77.20;100678.97;5052050;28;20036;-66
2023/03/17 00:37:52;;;;;;;6.68;3.00;;;;;;;6.48;77.86;100676.22;5052559;28;20032;-66
2023/03/17 00:40:17;;;;;;;;;;;;;;;6.53;76.98;100682.44;5052623;28;20091;-66
2023/03/17 00:42:43;;;;;;;6.47;3.63;;;;;;;6.48;77.24;100685.56;5051693;28;20303;-66
2023/03/17 00:45:09;;;;;;;4.32;3.20;;;;;;;6.46;77.27;100682.97;5052195;28;20032;-66
2023/03/17 00:47:35;;;;;;;7.50;3.58;;;;;;;6.50;77.07;100689.09;5052384;28;20075;-66
2023/03/17 00:50:00;;;;;;;5.38;3.38;;;;;;;6.51;76.59;100680.63;5051500;28;20029;-66
2023/03/17 00:52:25;;;;;;;6.60;3.40;;;;;;;6.51;76.56;100678.91;5052397;28;20108;-66
2023/03/17 00:54:51;;;;;;;4.53;3.30;;;;;;;6.52;76.86;100675.56;5052483;28;20021;-66
2023/03/17 00:57:16;;;;;;;5.40;3.22;;;;;;;6.52;76.78;100677.22;5055020;28;20029;-66
2023/03/17 00:59:42;;;;;;;5.70;3.00;;;;;;;6.48;76.84;100671.13;5056324;28;20083;-67
2023/03/17 01:02:11;;;;;;;5.18;3.10;;;;;;;6.49;76.46;100672.84;5056067;28;20384;-66
2023/03/17 01:04:37;;;;;;;5.18;3.20;;;;;;;6.44;77.13;100669.19;5055705;28;20032;-66
2023/03/17 01:07:03;;;;;;;7.47;3.20;;;;;;;6.44;77.08;100671.75;5055705;28;20395;-66
2023/03/17 01:09:29;;;;;;;9.02;3.38;;;;;;;6.46;77.04;100665.03;5056243;28;20017;-66
2023/03/17 01:11:54;;;;;;;7.53;3.83;;;;;;;6.41;76.84;100676.75;5055009;28;20033;-66
2023/03/17 01:14:20;;;;;;;6.47;3.22;;;;;;;6.38;77.55;100669.81;5056035;28;20017;-66
2023/03/17 01:16:46;;;;;;;7.35;3.13;;;;;;;6.36;77.48;100670.56;5055761;28;20094;-66
2023/03/17 01:19:12;;;;;;;5.60;3.30;;;;;;;6.33;77.12;100675.56;5055318;28;20064;-66
2023/03/17 01:21:38;;;;;;;6.57;3.22;;;;;;;6.29;77.42;100672.00;5056028;28;20028;-66
2023/03/17 01:24:04;;;;;;;5.75;3.30;;;;;;;6.25;77.16;100668.41;5054704;28;20035;-66
2023/03/17 01:26:30;;;;;;;5.15;2.78;;;;;;;6.27;77.39;100660.78;5055670;28;20082;-66
2023/03/17 01:28:55;;;;;;;7.55;3.38;;;;;;;6.19;77.55;100652.78;5055278;28;20017;-66
2023/03/17 01:31:21;;;;;;;4.07;2.72;;;;;;;6.17;77.61;100656.97;5055100;28;20067;-66
2023/03/17 01:33:47;;;;;;;5.75;3.33;;;;;;;6.14;77.75;100656.81;5055827;28;20025;-66
2023/03/17 01:36:12;;;;;;;6.03;3.20;;;;;;;6.14;78.12;100649.13;5055565;28;20032;-66
2023/03/17 01:38:37;;;;;;;6.55;3.17;;;;;;;6.12;77.76;100655.88;5055075;28;20035;-66
2023/03/17 01:41:03;;;;;;;6.82;3.13;;;;;;;6.10;78.02;100652.38;5055222;28;20021;-66
2023/03/17 01:43:29;;;;;;;5.03;2.97;;;;;;;6.10;77.94;100653.25;5055292;28;20493;-66
2023/03/17 01:46:16;;;;;;;5.72;2.90;;;;;;;6.07;78.25;100648.00;5054722;28;20021;-66
2023/03/17 01:48:51;;;;;;;7.57;3.00;;;;;;;6.00;78.28;100653.63;5055481;28;20028;-66
2023/03/17 01:51:30;;;;;;;5.07;2.88;;;;;;;5.92;79.59;100657.50;5055087;28;20025;-66
2023/03/17 01:53:58;;;;;;;6.40;3.22;;;;;;;5.87;79.53;100656.41;5054227;28;20025;-67
2023/03/17 01:56:24;;;;;;;5.38;3.17;;;;;;;5.85;79.31;100650.34;5055415;28;20067;-66
2023/03/17 01:58:53;;;;;;;6.38;3.33;;;;;;;5.83;79.77;100652.84;5055369;28;20025;-66
2023/03/17 02:01:24;;;;;;;5.65;3.80;;;;;;;5.75;79.78;100644.81;5054346;28;20017;-66
2023/03/17 02:03:49;;;;;;;7.40;3.42;;;;;;;5.75;80.28;100637.16;5055030;28;20472;-66
2023/03/17 02:06:14;;;;;;;5.70;3.40;;;;;;;5.75;79.92;100633.72;5053834;28;20104;-66
2023/03/17 02:08:40;;;;;;;5.40;3.72;;;;;;;5.72;80.12;100631.91;5053871;28;20083;-66
2023/03/17 02:11:05;;;;;;;5.85;3.53;;;;;;;5.60;80.90;100627.13;5054845;28;20025;-66
2023/03/17 02:13:32;;;;;;;6.78;3.30;;;;;;;5.59;80.90;100620.25;5054286;28;20490;-67
2023/03/17 02:15:58;;;;;;;6.70;3.28;;;;;;;5.60;80.81;100616.88;5054621;28;20078;-66
2023/03/17 02:18:23;;;;;;;6.22;3.38;;;;;;;5.59;81.02;100615.13;5054668;28;20494;-66
2023/03/17 02:20:48;;;;;;;5.47;3.60;;;;;;;5.55;81.39;100620.03;5054066;28;20112;-66
2023/03/17 02:23:17;;;;;;;6.43;3.60;;;;;;;5.54;81.34;100618.25;5054225;28;20041;-66
2023/03/17 02:25:46;;;;;;;7.00;3.60;;;;;;;5.58;81.25;100626.16;5054917;28;20033;-66
2023/03/17 02:28:15;;;;;;;5.30;3.40;;;;;;;5.45;82.20;100623.84;5053805;28;20027;-67
2023/03/17 02:30:41;;;;;;;5.40;3.25;;;;;;;5.46;82.36;100620.47;5054604;28;20373;-66
2023/03/17 02:33:07;;;;;;;6.15;3.53;;;;;;;5.56;81.80;100617.53;5054214;28;20047;-66
2023/03/17 02:35:33;;;;;;;4.95;3.35;;;;;;;5.53;81.95;100607.16;5053745;28;20102;-66
2023/03/17 02:37:58;;;;;;;4.68;3.03;;;;;;;5.55;81.70;100603.03;5054141;28;20147;-66
2023/03/17 02:40:23;;;;;;;5.03;3.28;;;;;;;5.59;81.72;100596.34;5054341;28;20017;-66
2023/03/17 02:42:50;;;;;;;5.00;3.20;;;;;;;5.63;81.45;100594.81;5053753;28;20032;-66
2023/03/17 02:45:15;;;;;;;5.40;3.30;;;;;;;5.65;81.08;100588.97;5053971;28;20472;-66
2023/03/17 02:47:41;;;;;;;5.63;3.55;;;;;;;5.67;80.75;100589.00;5054187;28;20070;-66
2023/03/17 02:50:08;;;;;;;5.80;3.03;;;;;;;5.64;81.28;100594.88;5053140;28;20021;-66
2023/03/17 02:52:34;;;;;;;5.85;3.10;;;;;;;5.64;81.25;100594.88;5054385;28;20036;-67
2023/03/17 02:54:59;;;;;;;6.15;3.65;;;;;;;5.60;81.46;100593.88;5053961;28;20044;-67
2023/03/17 02:57:25;;;;;;;5.05;3.53;;;;;;;5.60;81.23;100588.75;5053512;28;20036;-66
2023/03/17 02:59:50;;;;;;;5.35;3.45;;;;;;;5.58;81.46;100590.38;5054186;28;20047;-66
2023/03/17 03:02:16;;;;;;;6.68;3.58;;;;;;;5.55;81.28;100590.25;5053487;28;20036;-66
2023/03/17 03:04:42;;;;;;;5.00;3.13;;;;;;;5.58;81.39;100584.38;5053318;28;20425;-66
2023/03/17 03:07:09;;;;;;;5.00;3.05;;;;;;;5.53;81.55;100598.63;5053287;28;20053;-66
2023/03/17 03:09:35;;;;;;;4.93;3.13;;;;;;;5.51;82.45;100602.78;5053051;28;20381;-66
2023/03/17 03:12:01;;;;;;;5.93;3.25;;;;;;;5.54;81.89;100608.03;5053658;28;20024;-66
2023/03/17 03:14:26;;;;;;;5.60;3.20;;;;;;;5.51;81.81;100603.66;5053756;28;20024;-66
2023/03/17 03:16:52;;;;;;;7.05;3.85;;;;;;;5.48;82.01;100593.31;5053027;28;20070;-66
2023/03/17 03:19:17;;;;;;;5.53;3.40;;;;;;;5.50;81.90;100595.91;5052937;28;20372;-66
2023/03/17 03:21:42;;;;;;;6.63;3.40;;;;;;;5.52;82.05;100584.97;5053700;28;20033;-66
2023/03/17 03:24:08;;;;;;;5.95;3.50;;;;;;;5.54;81.81;100588.47;5052651;28;20028;-66
2023/03/17 03:26:34;;;;;;;5.00;3.25;;;;;;;5.51;81.16;100598.53;5053693;28;20025;-66
2023/03/17 03:29:00;;;;;;;5.57;3.30;;;;;;;5.54;80.81;100603.81;5053235;28;20412;-67
2023/03/17 03:31:25;;;;;;;7.93;3.45;;;;;;;5.51;81.20;100610.47;5052745;28;20027;-66
2023/03/17 03:33:51;;;;;;;6.80;3.00;;;;;;;5.56;80.88;100607.31;5053261;28;20029;-66
2023/03/17 03:36:17;;;;;;;5.35;3.08;;;;;;;5.57;80.96;100600.53;5053264;28;20029;-66
2023/03/17 03:38:42;;;;;;;6.18;3.70;;;;;;;5.62;80.65;100596.50;5052732;28;20071;-66
2023/03/17 03:41:08;;;;;;;5.70;3.10;;;;;;;5.61;80.60;100593.03;5053219;28;20409;-66
2023/03/17 03:43:34;;;;;;;7.03;3.35;;;;;;;5.66;80.17;100607.75;5053046;28;20078;-66
2023/03/17 03:45:59;;;;;;;5.80;3.22;;;;;;;5.66;80.39;100612.84;5052199;28;20025;-66
2023/03/17 03:48:25;;;;;;;6.90;3.47;;;;;;;5.61;80.70;100610.94;5053131;28;20435;-66
2023/03/17 03:50:55;;;;;;;6.70;3.38;;;;;;;5.60;80.44;100611.78;5053016;28;20057;-66
2023/03/17 03:53:20;;;;;;;7.90;3.58;;;;;;;5.65;80.05;100621.31;5052614;28;20044;-66
2023/03/17 03:55:45;;;;;;;4.95;3.10;;;;;;;5.63;79.86;100622.94;5053145;28;20059;-66
2023/03/17 03:58:11;;;;;;;5.40;3.40;;;;;;;5.62;79.72;100616.94;5052627;28;20385;-66
2023/03/17 04:00:36;;;;;;;5.93;3.58;;;;;;;5.56;81.08;100620.09;5052259;28;20435;-66
2023/03/17 04:03:02;;;;;;;6.80;2.95;;;;;;;5.59;80.75;100634.69;5052476;28;20472;-66
2023/03/17 04:05:27;;;;;;;6.22;3.40;;;;;;;5.52;80.49;100632.66;5052815;28;20025;-66
2023/03/17 04:07:53;;;;;;;6.88;3.20;;;;;;;5.52;80.73;100625.00;5051942;28;20053;-66
2023/03/17 04:10:18;;;;;;;8.30;3.40;;;;;;;5.48;80.71;100631.66;5052608;28;20021;-66
2023/03/17 04:12:44;;;;;;;5.60;3.25;;;;;;;5.43;80.79;100626.31;5052065;28;20054;-66
2023/03/17 04:15:14;;;;;;;5.68;3.03;;;;;;;5.33;81.29;100629.22;5052509;28;20155;-66
2023/03/17 04:17:40;;;;;;;6.88;3.42;;;;;;;5.41;81.15;100627.03;5052620;28;20397;-66
2023/03/17 04:20:06;;;;;;;7.60;3.20;;;;;;;5.42;81.03;100628.78;5051910;28;20457;-66
2023/03/17 04:22:31;;;;;;;5.38;3.15;;;;;;;5.39;81.48;100623.56;5052444;28;20126;-66
2023/03/17 04:24:56;;;;;;;8.35;3.33;;;;;;;5.43;81.01;100625.44;5052501;28;20087;-66
2023/03/17 04:27:21;;;;;;;5.57;3.20;;;;;;;5.46;81.14;100619.59;5052005;28;20024;-66
2023/03/17 04:29:47;;;;;;;6.50;3.25;;;;;;;5.44;81.13;100624.66;5053466;28;20354;-66
2023/03/17 04:32:13;;;;;;;10.43;3.72;;;;;;;5.46;81.08;100628.13;5058657;28;20021;-66
2023/03/17 04:34:40;;;;;;;5.72;3.15;;;;;;;5.48;81.58;100626.53;5058450;28;20019;-66
2023/03/17 04:37:06;;;;;;;13.55;3.00;;;;;;;5.49;81.08;100619.72;5059013;28;20057;-66
2023/03/17 04:39:31;;;;;;;4.90;3.10;;;;;;;5.54;80.88;100631.94;5059183;28;20106;-66
2023/03/17 04:41:56;;;;;;;7.07;3.50;;;;;;;5.58;80.08;100626.16;5057980;28;20044;-67
2023/03/17 04:44:22;;;;;;;7.25;3.30;;;;;;;5.62;80.10;100627.19;5059078;28;20050;-66
2023/03/17 04:46:47;;;;;;;7.43;3.40;;;;;;;5.65;79.74;100636.66;5059125;28;20477;-66
2023/03/17 04:49:13;;;;;;;5.60;3.42;;;;;;;5.64;80.20;100634.91;5057967;28;20033;-66
2023/03/17 04:51:38;;;;;;;5.53;3.20;;;;;;;5.59;80.43;100625.34;5059308;28;20025;-66
2023/03/17 04:54:04;;;;;;;6.88;3.50;;;;;;;5.63;80.14;100625.47;5058797;28;20024;-66
2023/03/17 04:56:30;;;;;;;6.45;3.35;;;;;;;5.61;80.90;100621.16;5058445;28;20049;-66
2023/03/17 04:58:55;;;;;;;7.13;3.53;;;;;;;5.60;80.94;100624.56;5058734;28;20029;-66
2023/03/17 05:01:20;;;;;;;4.80;3.13;;;;;;;5.63;80.19;100617.81;5059171;28;20032;-66
2023/03/17 05:03:46;;;;;;;7.15;3.15;;;;;;;5.66;80.21;100629.06;5058309;28;20029;-66
2023/03/17 05:06:12;;;;;;;6.78;3.28;;;;;;;5.64;80.34;100615.31;5058605;28;20021;-65
2023/03/17 05:08:37;;;;;;;6.90;3.50;;;;;;;5.68;80.26;100611.22;5059129;28;20523;-66
2023/03/17 05:11:02;;;;;;;5.63;2.92;;;;;;;5.71;80.17;100601.16;5058074;28;20040;-66
2023/03/17 05:13:28;;;;;;;7.40;3.40;;;;;;;5.73;79.59;100602.09;5058927;28;20052;-66
2023/03/17 05:15:55;;;;;;;4.72;2.60;;;;;;;5.73;79.77;100599.53;5058621;28;20518;-66
2023/03/17 05:18:23;;;;;;;5.43;3.30;;;;;;;5.67;80.47;100605.25;5058633;28;20029;-66
2023/03/17 05:20:48;;;;;;;6.53;3.08;;;;;;;5.71;79.89;100601.16;5059094;28;20028;-66
2023/03/17 05:23:13;;;;;;;7.05;3.28;;;;;;;5.67;80.38;100604.34;5057539;28;20731;-66
2023/03/17 05:25:40;;;;;;;6.35;3.25;;;;;;;5.63;80.26;100612.69;5058952;28;20039;-66
2023/03/17 05:28:06;;;;;;;6.30;3.25;;;;;;;5.60;80.91;100610.88;5058431;28;20025;-66
2023/03/17 05:30:32;;;;;;;5.47;3.55;;;;;;;5.53;81.80;100616.53;5058009;28;20031;-66
2023/03/17 05:32:58;;;;;;;8.93;3.50;;;;;;;5.47;81.19;100622.22;5058324;28;20360;-66
2023/03/17 05:35:23;;;;;;;6.07;2.97;;;;;;;5.40;82.50;100620.19;5058605;28;20024;-66
2023/03/17 05:37:49;;;;;;;6.50;3.58;;;;;;;5.38;82.96;100616.69;5057789;28;20025;-66
2023/03/17 05:40:14;;;;;;;7.20;3.42;;;;;;;5.38;82.88;100622.66;5058354;28;20060;-66
2023/03/17 05:42:40;;;;;;;5.55;3.42;;;;;;;5.36;83.05;100628.50;5056317;28;20047;-66
2023/03/17 05:45:06;;;;;;;6.35;3.33;;;;;;;5.23;84.08;100622.81;5054362;28;20040;-66
2023/03/17 05:47:32;;;;;;;6.72;3.70;;;;;;;5.30;83.14;100626.53;5055335;28;20460;-66
2023/03/17 05:49:59;;;;;;;8.65;3.67;;;;;;;5.22;83.73;100621.06;5055198;28;20074;-66
2023/03/17 05:52:25;;;;;;;5.87;3.40;;;;;;;5.30;83.61;100620.56;5054638;28;20100;-66
2023/03/17 05:54:51;;;;;;;11.52;3.85;;;;;;;5.25;83.84;100618.69;5055326;28;20100;-66
2023/03/17 05:57:17;;;;;;;8.75;3.40;;;;;;;5.28;84.10;100613.69;5054937;28;20032;-66
2023/03/17 05:59:42;;;;;;;7.28;3.63;;;;;;;5.20;84.74;100615.03;5054340;28;20017;-66
2023/03/17 06:02:10;;;;;;;6.72;3.35;;;;;;;5.19;84.75;100618.38;5054710;28;20380;-66
2023/03/17 06:04:35;;;;;;;7.57;3.90;;;;;;;5.21;84.49;100609.09;5054939;28;20025;-66
2023/03/17 06:07:01;;;;;;;8.35;4.65;;;;;;;5.19;84.68;100605.59;5053948;28;20083;-66
2023/03/17 06:09:26;;;;;;;9.48;4.03;;;;;;;5.18;85.38;100608.97;5055108;28;20100;-66
2023/03/17 06:11:52;;;;;;;11.43;5.22;;;;;;;5.16;85.61;100614.78;5055000;28;20024;-66
2023/03/17 06:14:18;;;;;;;6.95;3.55;;;;;;;5.19;84.98;100613.28;5053787;28;20032;-66
2023/03/17 06:16:43;;;;;;;7.97;4.00;;;;;;;5.17;84.81;100614.88;5055043;28;20021;-66
2023/03/17 06:19:09;;;;;;;7.93;3.72;;;;;;;5.20;85.30;100614.13;5054605;28;20373;-66
2023/03/17 06:21:34;;;;;;;7.07;3.53;;;;;;;5.19;85.49;100618.38;5054167;28;20488;-66
2023/03/17 06:23:59;;;;;;;6.03;3.40;;;;;;;5.24;85.28;100613.47;5054288;28;20037;-66
2023/03/17 06:26:26;;;;;;;8.05;3.90;;;;;;;5.30;84.73;100612.91;5053999;28;20045;-66
2023/03/17 06:28:51;;;;;;;5.63;3.58;;;;;;;5.37;84.68;100617.47;5054607;28;20106;-66
2023/03/17 06:31:16;;;;;;;8.57;3.88;;;;;;;5.40;84.89;100613.41;5054150;28;20060;-66
2023/03/17 06:33:42;;;;;;;8.15;3.85;;;;;;;5.50;84.81;100622.38;5053810;28;20053;-66
2023/03/17 06:36:08;;;;;;;7.13;3.72;;;;;;;5.53;84.45;100617.41;5054330;28;20487;-66
2023/03/17 06:38:33;;;;;;;9.40;3.85;;;;;;;5.56;84.68;100621.78;5054534;28;20052;-66
2023/03/17 06:40:59;;;;;;;7.68;4.00;;;;;;;5.66;84.03;100629.06;5053391;28;20029;-66
2023/03/17 06:43:24;;;;;;;7.25;3.85;;;;;;;5.71;83.79;100621.63;5054287;28;20029;-66
2023/03/17 06:45:51;;;;;;;7.03;3.85;;;;;;;5.75;83.37;100619.25;5054247;28;20029;-65
2023/03/17 06:48:16;;;;;;;9.50;3.80;;;;;;;5.80;83.58;100616.03;5053175;28;20531;-66
2023/03/17 06:50:42;;;;;;;10.55;4.22;;;;;;;5.87;82.42;100618.91;5054532;28;20013;-66
2023/03/17 06:53:07;;;;;;;7.25;4.00;;;;;;;5.94;82.36;100609.88;5053463;28;20029;-65
2023/03/17 06:55:32;;;;;;;7.63;4.05;;;;;;;5.99;81.77;100616.09;5053438;28;20021;-65
2023/03/17 06:57:59;;;;;;;8.70;3.83;;;;;;;6.04;82.44;100617.16;5053832;28;20427;-66
2023/03/17 07:00:24;;;;;;;9.98;3.75;;;;;;;6.10;82.05;100619.13;5054081;28;20056;-66
2023/03/17 07:02:50;;;;;;;9.27;3.67;;;;;;;6.19;81.34;100611.84;5053327;28;20449;-66
2023/03/17 07:05:15;;;;;;;6.35;3.72;;;;;;;6.26;81.40;100612.97;5053497;28;20062;-66
2023/03/17 07:07:41;;;;;;;8.20;3.97;;;;;;;6.34;80.57;100620.97;5053553;28;20182;-66
2023/03/17 07:10:09;;;;;;;7.13;3.60;;;;;;;6.40;80.69;100626.38;5052752;28;20013;-66
2023/03/17 07:12:35;;;;;;;7.47;4.00;;;;;;;6.47;80.39;100623.28;5053752;28;20095;-66
2023/03/17 07:15:01;;;;;;;11.68;6.95;;;;;;;6.53;80.74;100614.97;5053503;28;20048;-65
2023/03/17 07:17:26;;;;;;;6.90;3.78;;;;;;;6.62;79.62;100609.34;5053103;28;20465;-66
2023/03/17 07:19:51;;;;;;;8.45;4.07;;;;;;;6.68;79.50;100619.88;5053780;28;20021;-65
2023/03/17 07:22:16;;;;;;;10.35;4.03;;;;;;;6.74;79.51;100618.44;5053254;28;20104;-65
2023/03/17 07:24:42;;;;;;;8.75;4.45;;;;;;;6.85;78.71;100625.69;5052931;28;20358;-65
2023/03/17 07:27:08;;;;;;;8.70;4.43;;;;;;;6.91;78.52;100626.81;5053137;28;20384;-66
2023/03/17 07:29:33;;;;;;;9.18;4.13;;;;;;;6.99;79.07;100621.13;5052975;28;20028;-66
2023/03/17 07:32:00;;;;;;;9.82;4.25;;;;;;;7.07;78.44;100628.28;5052978;28;20082;-65
2023/03/17 07:34:25;;;;;;;12.48;6.55;;;;;;;7.17;77.50;100611.59;5053454;28;20100;-66
2023/03/17 07:36:51;;;;;;;9.93;4.25;;;;;;;7.25;76.88;100607.63;5052654;28;20067;-65
2023/03/17 07:39:16;;;;;;;10.18;4.50;;;;;;;7.39;77.47;100604.75;5053052;28;20027;-65
2023/03/17 07:41:42;;;;;;;8.85;4.63;;;;;;;7.46;76.29;100595.59;5053127;28;20428;-66
2023/03/17 07:44:08;;;;;;;7.65;4.15;;;;;;;7.54;77.02;100592.53;5052067;28;20530;-65
2023/03/17 07:46:33;;;;;;;10.20;3.95;;;;;;;7.60;76.14;100591.00;5053310;28;20028;-67
2023/03/17 07:48:59;;;;;;;10.20;4.70;;;;;;;7.66;75.61;100596.38;5053005;28;20520;-66
2023/03/17 07:51:26;;;;;;;9.48;4.43;;;;;;;7.73;75.85;100593.19;5052538;28;20029;-66
2023/03/17 07:53:54;;;;;;;8.73;4.25;;;;;;;7.81;74.64;100602.06;5053146;28;20029;-66
2023/03/17 07:56:20;;;;;;;9.45;4.05;;;;;;;7.85;74.46;100606.47;5052960;28;20021;-66
2023/03/17 07:58:46;;;;;;;8.88;4.13;;;;;;;7.91;73.63;100605.81;5052360;28;20047;-67
2023/03/17 08:01:11;;;;;;;9.95;4.40;;;;;;;7.98;73.78;100601.78;5052801;28;20062;-67
2023/03/17 08:03:37;;;;;;;8.13;4.70;;;;;;;8.05;73.56;100614.88;5052920;28;20028;-67
2023/03/17 08:06:04;;;;;;;10.93;4.30;;;;;;;8.16;73.60;100623.00;5050980;28;20016;-67
2023/03/17 08:08:30;;;;;;;7.65;4.50;;;;;;;8.28;73.58;100619.97;5052842;28;20041;-66
2023/03/17 08:11:03;;;;;;;12.45;4.47;;;;;;;8.40;72.21;100622.09;5052474;28;20028;-67
2023/03/17 08:13:30;;;;;;;10.73;4.28;;;;;;;8.46;72.00;100618.91;5052305;28;20033;-67
2023/03/17 08:15:55;;;;;;;10.02;4.53;;;;;;;8.52;71.62;100607.16;5052610;28;20052;-66
2023/03/17 08:18:21;;;;;;;13.60;5.38;;;;;;;8.59;71.69;100605.66;5052739;28;20072;-67
2023/03/17 08:20:48;;;;;;;10.75;4.32;;;;;;;8.69;71.15;100622.28;5051825;28;20025;-66
2023/03/17 08:23:13;;;;;;;10.55;4.32;;;;;;;8.77;70.67;100617.41;5052242;28;20471;-67
2023/03/17 08:25:38;;;;;;;12.77;4.45;;;;;;;8.86;70.98;100622.81;5052562;28;20071;-66
2023/03/17 08:28:04;;;;;;;12.13;4.53;;;;;;;8.97;70.28;100618.88;5051825;28;20072;-67
2023/03/17 08:30:29;;;;;;;11.20;4.40;;;;;;;9.07;69.89;100617.50;5052762;28;20029;-66
2023/03/17 08:32:55;;;;;;;9.80;4.82;;;;;;;9.21;69.77;100613.66;5051549;28;20025;-66
2023/03/17 08:35:20;;;;;;;12.65;4.90;;;;;;;9.34;68.85;100608.91;5052511;28;20423;-66
2023/03/17 08:37:46;;;;;;;10.73;4.43;;;;;;;9.42;68.26;100612.56;5052500;28;20096;-66
2023/03/17 08:40:15;;;;;;;11.48;4.47;;;;;;;9.55;67.91;100607.00;5051479;28;20048;-67
2023/03/17 08:42:42;;;;;;;12.05;4.43;;;;;;;9.65;67.43;100602.13;5052082;28;20584;-66
2023/03/17 08:45:08;;;;;;;16.95;4.70;;;;;;;9.74;67.72;100588.66;5052235;28;20100;-66
2023/03/17 08:47:35;;;;;;;12.45;5.00;;;;;;;9.86;67.50;100586.41;5051823;28;20025;-67
2023/03/17 08:50:00;;;;;;;10.00;4.50;;;;;;;9.95;66.88;100588.38;5051952;28;20381;-67
2023/03/17 08:52:26;;;;;;;9.45;4.60;;;;;;;10.03;66.36;100597.16;5052328;28;20431;-66
2023/03/17 08:54:52;;;;;;;12.27;4.28;;;;;;;10.16;65.68;100599.28;5051534;28;20108;-66
2023/03/17 08:57:18;;;;;;;11.00;4.32;;;;;;;10.30;64.44;100603.91;5052348;28;20071;-66
2023/03/17 08:59:44;;;;;;;10.18;4.38;;;;;;;10.46;63.34;100611.25;5052520;28;20025;-67
2023/03/17 09:02:10;;;;;;;12.15;4.53;;;;;;;10.65;63.33;100607.44;5051153;28;20060;-67
2023/03/17 09:04:36;;;;;;;10.18;4.35;;;;;;;10.80;62.43;100606.09;5052149;28;20059;-66
2023/03/17 09:07:01;;;;;;;10.85;4.65;;;;;;;10.96;61.80;100603.06;5051789;28;20041;-66
2023/03/17 09:09:27;;;;;;;8.35;4.18;;;;;;;11.07;61.17;100592.97;5051388;28;20473;-66
2023/03/17 09:11:53;;;;;;;10.82;4.43;;;;;;;11.15;60.65;100594.03;5051876;28;20140;-66
2023/03/17 09:14:19;;;;;;;11.13;3.60;;;;;;;11.19;59.91;100595.84;5052183;28;20061;-66
2023/03/17 09:16:47;;;;;;;8.90;4.18;;;;;;;11.19;59.65;100585.53;5052433;28;20100;-66
2023/03/17 09:19:13;;;;;;;11.77;4.38;;;;;;;11.20;59.29;100595.00;5055809;28;20079;-66
2023/03/17 09:21:38;;;;;;;11.75;3.47;;;;;;;11.23;59.84;100596.78;5055799;28;20021;-66
2023/03/17 09:24:03;;;;;;;7.43;3.42;;;;;;;11.24;59.91;100592.50;5054473;28;20094;-67
2023/03/17 09:26:29;;;;;;;8.75;3.72;;;;;;;11.38;60.88;100587.66;5055972;28;20025;-67
2023/03/17 09:28:54;;;;;;;7.78;3.70;;;;;;;11.48;59.82;100587.88;5055602;28;20017;-67
2023/03/17 09:31:20;;;;;;;8.18;3.47;;;;;;;11.59;59.27;100589.81;5055198;28;20028;-66
2023/03/17 09:33:46;;;;;;;9.85;4.10;;;;;;;11.69;59.37;100594.34;5055626;28;20453;-67
2023/03/17 09:36:12;;;;;;;10.60;3.90;;;;;;;11.83;58.43;100598.06;5054641;28;20044;-66
2023/03/17 09:38:38;;;;;;;14.48;4.55;;;;;;;12.00;58.39;100600.16;5055491;28;20028;-66
2023/03/17 09:41:17;;;;;;;11.40;3.85;;;;;;;12.07;58.69;100588.22;5054932;28;20021;-66
2023/03/17 09:44:01;;;;;;;7.95;3.60;;;;;;;12.20;57.56;100579.91;5054595;28;20385;-66
2023/03/17 09:46:51;;;;;;;8.85;3.83;;;;;;;12.21;59.10;100580.75;5055352;28;20496;-66
2023/03/17 09:49:26;;;;;;;8.20;4.10;;;;;;;12.12;57.85;100581.44;5055281;28;20083;-66
2023/03/17 09:51:52;;;;;;;6.63;3.47;;;;;;;12.13;58.56;100583.19;5054726;28;20033;-66
2023/03/17 09:54:32;;;;;;;8.02;3.67;;;;;;;12.13;58.79;100585.78;5055124;28;20025;-66
2023/03/17 09:57:05;;;;;;;7.97;4.32;;;;;;;12.09;58.44;100586.56;5055078;28;20032;-66
2023/03/17 09:59:39;;;;;;;9.82;3.95;;;;;;;12.15;58.82;100597.88;5054333;28;20049;-67
2023/03/17 10:02:22;;;;;;;8.85;3.65;;;;;;;12.22;59.14;100598.00;5054794;28;20480;-66
2023/03/17 10:04:48;;;;;;;9.15;3.58;;;;;;;12.19;58.97;100610.00;5054448;28;20021;-66
2023/03/17 10:07:20;;;;;;;9.65;3.85;;;;;;;12.11;58.56;100611.59;5054447;28;20041;-66
2023/03/17 10:09:58;;;;;;;10.45;4.13;;;;;;;12.12;59.06;100613.34;5054881;28;20465;-66
2023/03/17 10:12:23;;;;;;;;;;;;;;;12.24;60.52;100625.59;5054874;28;20074;-66
2023/03/17 10:15:17;;;;;;;6.25;3.25;;;;;;;12.17;59.61;100613.41;5055004;28;19909;-66
2023/03/17 10:17:42;;;;;;;6.50;3.33;;;;;;;12.19;60.04;100610.00;5054889;28;20472;-66
2023/03/17 10:20:14;;;;;;;8.70;3.85;;;;;;;12.18;59.69;100617.75;5053657;28;20028;-66
2023/03/17 10:22:51;;;;;;;7.47;3.90;;;;;;;12.23;60.79;100635.91;5054870;28;20071;-66
2023/03/17 10:25:18;;;;;;;10.90;4.15;;;;;;;12.18;60.63;100648.75;5054482;28;20021;-66
2023/03/17 10:28:25;;;;;;;8.77;3.80;;;;;;;12.26;60.85;100643.72;5053472;28;20044;-66
2023/03/17 10:30:51;;;;;;;;;;;;;;;12.40;62.30;100639.69;5055014;28;20029;-66
2023/03/17 10:33:17;;;;;;;7.13;3.78;;;;;;;12.69;59.43;100639.31;5053663;28;19913;-66
2023/03/17 10:35:43;;;;;;;7.43;3.70;;;;;;;12.96;58.77;100640.66;5054583;28;20052;-66
2023/03/17 10:38:22;;;;;;;6.40;3.35;;;;;;;13.09;60.61;100637.44;5054347;28;20044;-66
2023/03/17 10:41:02;;;;;;;7.20;3.17;;;;;;;13.54;59.03;100640.69;5053643;28;20021;-66
2023/03/17 10:43:29;;;;;;;9.00;4.07;;;;;;;13.75;56.33;100627.19;5054535;28;20035;-66
2023/03/17 10:46:03;;;;;;;;;;;;;;;13.95;60.80;100637.78;5054645;28;20032;-67
2023/03/17 10:48:34;;;;;;;9.00;3.70;;;;;;;14.63;57.43;100627.28;5053673;28;19917;-65
2023/03/17 10:50:59;;;;;;;10.40;3.67;;;;;;;15.13;54.58;100634.66;5054052;28;20026;-66
2023/03/17 10:53:29;;;;;;;8.60;4.00;;;;;;;15.38;51.02;100624.44;5054373;28;20047;-65
2023/03/17 10:56:05;;;;;;;8.85;4.30;;;;;;;16.18;51.02;100634.38;5053052;28;20074;-63
2023/03/17 10:58:38;;;;;;;7.07;3.30;;;;;;;16.44;51.57;100625.75;5054024;28;20491;-63
2023/03/17 11:01:23;;;;;;;7.60;3.30;;;;;;;16.68;52.03;100624.94;5053026;28;20021;-64
2023/03/17 11:03:49;;;;;;;9.43;3.72;;;;;;;16.28;48.25;100625.72;5053852;28;20048;-63
2023/03/17 11:06:25;;;;;;;6.68;3.15;;;;;;;16.74;50.39;100624.91;5053621;28;20024;-63
2023/03/17 11:08:54;;;;;;;6.53;3.22;;;;;;;17.04;50.97;100615.44;5053364;28;20044;-63
2023/03/17 11:11:28;;;;;;;6.95;3.28;;;;;;;17.08;49.63;100608.44;5053636;28;20047;-65
2023/03/17 11:14:04;;;;;;;8.85;3.20;;;;;;;17.63;50.03;100606.63;5053739;28;20029;-66
2023/03/17 11:16:36;;;;;;;7.55;3.05;;;;;;;18.22;45.81;100604.63;5052765;28;20013;-65
2023/03/17 11:19:04;;;;;;;5.32;2.92;;;;;;;18.57;46.21;100606.13;5053612;28;20025;-65
2023/03/17 11:21:35;;;;;;;5.50;2.70;;;;;;;18.94;44.58;100592.81;5053743;28;20027;-65
2023/03/17 11:24:08;;;;;;;6.45;2.90;;;;;;;19.26;44.35;100589.00;5052274;28;20067;-65
2023/03/17 11:26:54;;;;;;;7.05;2.90;;;;;;;19.55;43.35;100591.31;5053512;28;20032;-65
2023/03/17 11:29:31;;;;;;;5.85;2.90;;;;;;;19.37;41.82;100587.16;5053009;28;20021;-65
2023/03/17 11:32:00;;;;;;;6.45;3.13;;;;;;;19.73;42.23;100587.59;5053226;28;20060;-65